createdAt,value
2023-10-21T00:00:05.022Z,930.06
2023-10-21T00:01:04.900Z,930.08
2023-10-21T00:02:04.912Z,930.08
2023-10-21T00:03:04.975Z,930.08
2023-10-21T00:04:04.979Z,930.11
2023-10-21T00:05:04.826Z,930.11
2023-10-21T00:06:04.866Z,930.16
2023-10-21T00:07:04.802Z,930.22
2023-10-21T00:08:04.825Z,930.27
2023-10-21T00:09:04.863Z,930.24
2023-10-21T00:10:04.771Z,930.24
2023-10-21T00:11:04.795Z,930.26
2023-10-21T00:12:04.800Z,930.30
2023-10-21T00:13:04.733Z,930.38
2023-10-21T00:14:04.720Z,930.45
2023-10-21T00:15:04.862Z,930.53
2023-10-21T00:16:04.719Z,930.54
2023-10-21T00:17:04.670Z,930.55
2023-10-21T00:18:04.719Z,930.56
2023-10-21T00:19:04.645Z,930.50
2023-10-21T00:20:04.661Z,930.49
2023-10-21T00:21:04.783Z,930.50
2023-10-21T00:22:04.609Z,930.49
2023-10-21T00:23:04.605Z,930.51
2023-10-21T00:24:04.653Z,930.50
2023-10-21T00:25:04.564Z,930.52
2023-10-21T00:26:04.592Z,930.55
2023-10-21T00:27:04.583Z,930.59
2023-10-21T00:28:04.522Z,930.57
2023-10-21T00:29:04.511Z,930.55
2023-10-21T00:30:04.581Z,930.54
2023-10-21T00:31:04.480Z,930.56
2023-10-21T00:32:04.527Z,930.55
2023-10-21T00:33:04.514Z,930.58
2023-10-21T00:34:04.428Z,930.59
2023-10-21T00:35:04.445Z,930.64
2023-10-21T00:36:04.454Z,930.67
2023-10-21T00:37:04.409Z,930.71
2023-10-21T00:38:04.377Z,930.71
2023-10-21T00:39:04.396Z,930.67
2023-10-21T00:40:04.352Z,930.68
2023-10-21T00:41:04.342Z,930.69
2023-10-21T00:42:04.344Z,930.72
2023-10-21T00:43:04.344Z,930.78
2023-10-21T00:44:04.290Z,930.80
2023-10-21T00:45:04.328Z,930.81
2023-10-21T00:46:04.333Z,930.80
2023-10-21T00:47:04.257Z,930.80
2023-10-21T00:48:04.357Z,930.83
2023-10-21T00:49:04.222Z,930.86
2023-10-21T00:50:04.211Z,930.82
2023-10-21T00:51:04.227Z,930.84
2023-10-21T00:52:04.178Z,930.86
2023-10-21T00:53:04.164Z,930.89
2023-10-21T00:54:04.253Z,930.92
2023-10-21T00:55:04.182Z,930.95
2023-10-21T00:56:04.121Z,930.97
2023-10-21T00:57:04.201Z,931.01
2023-10-21T00:58:04.098Z,931.00
2023-10-21T00:59:04.124Z,931.00
2023-10-21T01:00:04.128Z,930.97
2023-10-21T01:01:04.054Z,930.97
2023-10-21T01:02:04.086Z,930.96
2023-10-21T01:03:04.168Z,930.97
2023-10-21T01:04:04.147Z,931.01
2023-10-21T01:05:04.028Z,930.99
2023-10-21T01:06:04.095Z,930.98
2023-10-21T01:07:04.018Z,931.02
2023-10-21T01:08:03.974Z,931.01
2023-10-21T01:09:04.116Z,930.97
2023-10-21T01:10:03.967Z,931.00
2023-10-21T01:11:03.967Z,931.00
2023-10-21T01:12:03.960Z,931.02
2023-10-21T01:13:03.913Z,930.99
2023-10-21T01:14:03.974Z,930.99
2023-10-21T01:15:03.920Z,931.02
2023-10-21T01:16:03.868Z,931.00
2023-10-21T01:17:03.852Z,930.97
2023-10-21T01:18:03.884Z,930.94
2023-10-21T01:19:03.817Z,930.96
2023-10-21T01:20:03.798Z,931.01
2023-10-21T01:21:03.861Z,931.03
2023-10-21T01:22:03.766Z,931.02
2023-10-21T01:23:03.768Z,931.02
2023-10-21T01:24:03.769Z,931.02
2023-10-21T01:25:03.743Z,931.05
2023-10-21T01:26:03.741Z,931.14
2023-10-21T01:27:03.767Z,931.13
2023-10-21T01:28:03.700Z,931.14
2023-10-21T01:29:03.697Z,931.16
2023-10-21T01:30:03.695Z,931.21
2023-10-21T01:31:03.748Z,931.18
2023-10-21T01:32:03.678Z,931.19
2023-10-21T01:33:03.678Z,931.20
2023-10-21T01:34:03.696Z,931.24
2023-10-21T01:35:03.641Z,931.23
2023-10-21T01:36:03.615Z,931.26
2023-10-21T01:37:03.600Z,931.25
2023-10-21T01:38:03.562Z,931.22
2023-10-21T01:39:03.587Z,931.22
2023-10-21T01:40:03.541Z,931.23
2023-10-21T01:41:03.544Z,931.28
2023-10-21T01:42:03.528Z,931.27
2023-10-21T01:43:03.506Z,931.20
2023-10-21T01:44:03.497Z,931.23
2023-10-21T01:45:03.510Z,931.23
2023-10-21T01:46:03.488Z,931.21
2023-10-21T01:47:03.432Z,931.25
2023-10-21T01:48:03.613Z,931.22
2023-10-21T01:49:03.462Z,931.24
2023-10-21T01:50:03.402Z,931.21
2023-10-21T01:51:03.385Z,931.18
2023-10-21T01:52:03.428Z,931.16
2023-10-21T01:53:03.393Z,931.18
2023-10-21T01:54:03.445Z,931.15
2023-10-21T01:55:03.351Z,931.17
2023-10-21T01:56:03.316Z,931.18
2023-10-21T01:57:03.355Z,931.24
2023-10-21T01:58:03.291Z,931.26
2023-10-21T01:59:03.272Z,931.24
2023-10-21T02:00:03.297Z,931.28
2023-10-21T02:01:03.324Z,931.31
2023-10-21T02:02:03.254Z,931.29
2023-10-21T02:03:03.308Z,931.32
2023-10-21T02:04:03.291Z,931.30
2023-10-21T02:05:03.194Z,931.30
2023-10-21T02:06:03.202Z,931.37
2023-10-21T02:07:03.229Z,931.43
2023-10-21T02:08:03.148Z,931.47
2023-10-21T02:09:03.219Z,931.46
2023-10-21T02:10:03.117Z,931.49
2023-10-21T02:11:03.120Z,931.48
2023-10-21T02:12:03.106Z,931.51
2023-10-21T02:13:03.125Z,931.50
2023-10-21T02:14:03.057Z,931.54
2023-10-21T02:15:03.075Z,931.56
2023-10-21T02:16:03.100Z,931.56
2023-10-21T02:17:03.019Z,931.59
2023-10-21T02:18:03.084Z,931.63
2023-10-21T02:19:02.994Z,931.62
2023-10-21T02:20:02.988Z,931.65
2023-10-21T02:21:03.001Z,931.65
2023-10-21T02:22:02.965Z,931.63
2023-10-21T02:23:02.948Z,931.65
2023-10-21T02:24:03.004Z,931.69
2023-10-21T02:25:12.947Z,931.69
2023-10-21T02:26:02.914Z,931.67
2023-10-21T02:27:02.951Z,931.67
2023-10-21T02:28:02.919Z,931.71
2023-10-21T02:29:02.859Z,931.68
2023-10-21T02:30:02.905Z,931.72
2023-10-21T02:31:02.860Z,931.70
2023-10-21T02:32:02.834Z,931.71
2023-10-21T02:33:02.818Z,931.72
2023-10-21T02:34:02.785Z,931.67
2023-10-21T02:35:02.773Z,931.68
2023-10-21T02:36:02.805Z,931.64
2023-10-21T02:37:02.746Z,931.66
2023-10-21T02:38:02.735Z,931.68
2023-10-21T02:39:02.753Z,931.74
2023-10-21T02:40:02.689Z,931.79
2023-10-21T02:41:02.702Z,931.84
2023-10-21T02:42:02.760Z,931.88
2023-10-21T02:43:02.659Z,931.93
2023-10-21T02:44:02.650Z,931.91
2023-10-21T02:45:02.718Z,931.94
2023-10-21T02:46:02.670Z,931.93
2023-10-21T02:47:02.603Z,931.96
2023-10-21T02:48:02.746Z,931.93
2023-10-21T02:49:02.594Z,931.90
2023-10-21T02:50:02.580Z,931.93
2023-10-21T02:51:02.626Z,931.97
2023-10-21T02:52:02.553Z,931.98
2023-10-21T02:53:02.531Z,932.02
2023-10-21T02:54:02.575Z,932.08
2023-10-21T02:55:02.521Z,932.10
2023-10-21T02:56:02.486Z,932.14
2023-10-21T02:57:02.505Z,932.17
2023-10-21T02:58:02.453Z,932.24
2023-10-21T02:59:02.457Z,932.24
2023-10-21T03:00:02.544Z,932.31
2023-10-21T03:01:02.452Z,932.27
2023-10-21T03:02:02.410Z,932.30
2023-10-21T03:03:02.506Z,932.36
2023-10-21T03:04:02.432Z,932.37
2023-10-21T03:05:02.405Z,932.42
2023-10-21T03:06:02.414Z,932.38
2023-10-21T03:07:02.348Z,932.45
2023-10-21T03:08:02.322Z,932.47
2023-10-21T03:09:02.345Z,932.50
2023-10-21T03:10:02.304Z,932.53
2023-10-21T03:11:02.290Z,932.53
2023-10-21T03:12:02.335Z,932.54
2023-10-21T03:13:02.259Z,932.48
2023-10-21T03:14:02.270Z,932.55
2023-10-21T03:15:02.263Z,932.56
2023-10-21T03:16:02.276Z,932.54
2023-10-21T03:17:02.224Z,932.55
2023-10-21T03:18:02.288Z,932.55
2023-10-21T03:19:02.177Z,932.56
2023-10-21T03:20:02.168Z,932.54
2023-10-21T03:21:02.170Z,932.59
2023-10-21T03:22:02.155Z,932.57
2023-10-21T03:23:02.173Z,932.57
2023-10-21T03:24:02.127Z,932.63
2023-10-21T03:25:02.084Z,932.58
2023-10-21T03:26:02.085Z,932.61
2023-10-21T03:27:02.092Z,932.65
2023-10-21T03:28:02.065Z,932.60
2023-10-21T03:29:02.066Z,932.68
2023-10-21T03:30:02.052Z,932.71
2023-10-21T03:31:02.066Z,932.75
2023-10-21T03:32:01.992Z,932.78
2023-10-21T03:33:02.101Z,932.81
2023-10-21T03:34:01.967Z,932.83
2023-10-21T03:35:01.939Z,932.84
2023-10-21T03:36:01.953Z,932.86
2023-10-21T03:37:01.911Z,932.86
2023-10-21T03:38:01.897Z,932.84
2023-10-21T03:39:01.895Z,932.88
2023-10-21T03:40:01.915Z,932.88
2023-10-21T03:41:01.848Z,932.87
2023-10-21T03:42:01.917Z,932.89
2023-10-21T03:43:01.832Z,932.88
2023-10-21T03:44:01.814Z,932.90
2023-10-21T03:45:01.810Z,932.93
2023-10-21T03:46:01.817Z,932.95
2023-10-21T03:47:01.786Z,933.02
2023-10-21T03:48:01.846Z,932.98
2023-10-21T03:49:01.736Z,933.01
2023-10-21T03:50:01.727Z,932.99
2023-10-21T03:51:01.737Z,933.03
2023-10-21T03:52:01.732Z,933.06
2023-10-21T03:53:01.687Z,933.09
2023-10-21T03:54:01.730Z,933.19
2023-10-21T03:55:01.667Z,933.23
2023-10-21T03:56:02.301Z,933.28
2023-10-21T03:57:01.711Z,933.30
2023-10-21T03:58:01.648Z,933.34
2023-10-21T03:59:01.659Z,933.40
2023-10-21T04:00:01.650Z,933.43
2023-10-21T04:01:01.644Z,933.41
2023-10-21T04:02:01.569Z,933.48
2023-10-21T04:03:01.705Z,933.54
2023-10-21T04:04:01.658Z,933.58
2023-10-21T04:05:01.538Z,933.62
2023-10-21T04:06:01.591Z,933.64
2023-10-21T04:07:01.491Z,933.70
2023-10-21T04:08:01.501Z,933.74
2023-10-21T04:09:01.712Z,933.74
2023-10-21T04:10:01.455Z,933.80
2023-10-21T04:11:01.516Z,933.81
2023-10-21T04:12:01.486Z,933.84
2023-10-21T04:13:01.421Z,933.90
2023-10-21T04:14:01.437Z,933.89
2023-10-21T04:15:01.431Z,933.91
2023-10-21T04:16:01.427Z,933.91
2023-10-21T04:17:01.360Z,933.91
2023-10-21T04:18:01.508Z,933.93
2023-10-21T04:19:01.334Z,933.99
2023-10-21T04:20:01.351Z,934.03
2023-10-21T04:21:01.374Z,934.05
2023-10-21T04:22:01.300Z,934.05
2023-10-21T04:23:01.290Z,934.07
2023-10-21T04:24:01.336Z,934.09
2023-10-21T04:25:01.269Z,934.11
2023-10-21T04:26:01.288Z,934.18
2023-10-21T04:27:01.342Z,934.17
2023-10-21T04:28:01.221Z,934.21
2023-10-21T04:29:01.195Z,934.24
2023-10-21T04:30:01.317Z,934.23
2023-10-21T04:31:01.200Z,934.23
2023-10-21T04:32:01.217Z,934.27
2023-10-21T04:33:01.274Z,934.30
2023-10-21T04:34:01.151Z,934.30
2023-10-21T04:35:01.126Z,934.35
2023-10-21T04:36:01.169Z,934.37
2023-10-21T04:37:01.130Z,934.41
2023-10-21T04:38:01.110Z,934.39
2023-10-21T04:39:01.087Z,934.42
2023-10-21T04:40:01.055Z,934.38
2023-10-21T04:41:01.050Z,934.46
2023-10-21T04:42:01.123Z,934.46
2023-10-21T04:43:01.037Z,934.46
2023-10-21T04:44:01.046Z,934.44
2023-10-21T04:45:01.052Z,934.45
2023-10-21T04:46:00.982Z,934.44
2023-10-21T04:47:00.992Z,934.50
2023-10-21T04:48:01.099Z,934.53
2023-10-21T04:49:00.949Z,934.53
2023-10-21T04:50:00.915Z,934.50
2023-10-21T04:51:00.952Z,934.52
2023-10-21T04:52:00.921Z,934.49
2023-10-21T04:53:00.904Z,934.47
2023-10-21T04:54:00.910Z,934.48
2023-10-21T04:55:00.855Z,934.52
2023-10-21T04:56:00.844Z,934.55
2023-10-21T04:57:00.892Z,934.51
2023-10-21T04:58:00.824Z,934.57
2023-10-21T04:59:02.086Z,934.57
2023-10-21T05:00:01.013Z,934.60
2023-10-21T05:01:00.775Z,934.58
2023-10-21T05:02:00.761Z,934.63
2023-10-21T05:03:00.967Z,934.66
2023-10-21T05:04:01.038Z,934.63
2023-10-21T05:05:00.767Z,934.67
2023-10-21T05:06:00.730Z,934.68
2023-10-21T05:07:00.699Z,934.66
2023-10-21T05:08:00.694Z,934.67
2023-10-21T05:09:00.717Z,934.67
2023-10-21T05:10:00.703Z,934.69
2023-10-21T05:11:00.637Z,934.70
2023-10-21T05:12:00.680Z,934.76
2023-10-21T05:13:00.620Z,934.73
2023-10-21T05:14:00.620Z,934.75
2023-10-21T05:15:00.646Z,934.76
2023-10-21T05:16:00.606Z,934.83
2023-10-21T05:17:00.579Z,934.85
2023-10-21T05:18:00.622Z,934.89
2023-10-21T05:19:00.557Z,934.87
2023-10-21T05:20:00.516Z,934.93
2023-10-21T05:21:00.583Z,934.98
2023-10-21T05:22:00.502Z,934.96
2023-10-21T05:23:00.476Z,935.00
2023-10-21T05:24:00.506Z,935.00
2023-10-21T05:25:00.492Z,935.07
2023-10-21T05:26:00.438Z,935.08
2023-10-21T05:27:00.512Z,935.11
2023-10-21T05:28:00.432Z,935.15
2023-10-21T05:29:00.409Z,935.17
2023-10-21T05:30:00.432Z,935.19
2023-10-21T05:31:00.397Z,935.25
2023-10-21T05:32:00.391Z,935.30
2023-10-21T05:33:00.403Z,935.33
2023-10-21T05:34:00.456Z,935.34
2023-10-21T05:35:00.347Z,935.35
2023-10-21T05:36:00.379Z,935.46
2023-10-21T05:37:00.293Z,935.44
2023-10-21T05:38:00.320Z,935.54
2023-10-21T05:39:00.300Z,935.55
2023-10-21T05:40:00.280Z,935.56
2023-10-21T05:41:00.233Z,935.61
2023-10-21T05:42:00.288Z,935.61
2023-10-21T05:43:00.251Z,935.64
2023-10-21T05:44:00.204Z,935.66
2023-10-21T05:45:00.218Z,935.68
2023-10-21T05:46:00.176Z,935.75
2023-10-21T05:47:00.152Z,935.82
2023-10-21T05:48:00.283Z,935.82
2023-10-21T05:49:00.168Z,935.84
2023-10-21T05:50:00.231Z,935.85
2023-10-21T05:51:00.140Z,935.90
2023-10-21T05:52:00.121Z,935.89
2023-10-21T05:53:00.082Z,935.95
2023-10-21T05:54:00.327Z,936.01
2023-10-21T05:55:00.048Z,935.99
2023-10-21T05:56:00.075Z,936.03
2023-10-21T05:57:00.061Z,936.05
2023-10-21T05:58:00.032Z,936.09
2023-10-21T05:59:00.027Z,936.11
2023-10-21T06:00:00.059Z,936.11
2023-10-21T06:01:00.036Z,936.12
2023-10-21T06:01:59.968Z,936.12
2023-10-21T06:03:00.057Z,936.15
2023-10-21T06:04:00.077Z,936.15
2023-10-21T06:04:59.978Z,936.14
2023-10-21T06:05:59.977Z,936.19
2023-10-21T06:06:59.898Z,936.21
2023-10-21T06:07:59.885Z,936.22
2023-10-21T06:08:59.885Z,936.27
2023-10-21T06:09:59.854Z,936.24
2023-10-21T06:10:59.863Z,936.23
2023-10-21T06:11:59.840Z,936.29
2023-10-21T06:12:59.848Z,936.31
2023-10-21T06:13:59.816Z,936.36
2023-10-21T06:14:59.832Z,936.37
2023-10-21T06:15:59.761Z,936.41
2023-10-21T06:16:59.920Z,936.47
2023-10-21T06:17:59.817Z,936.49
2023-10-21T06:18:59.750Z,936.58
2023-10-21T06:19:59.836Z,936.60
2023-10-21T06:20:59.738Z,936.67
2023-10-21T06:21:59.688Z,936.72
2023-10-21T06:22:59.718Z,936.74
2023-10-21T06:23:59.687Z,936.73
2023-10-21T06:26:27.494Z,936.72
2023-10-21T06:26:32.831Z,936.76
2023-10-21T06:27:32.842Z,936.74
2023-10-21T06:28:32.843Z,936.77
2023-10-21T06:29:32.815Z,936.78
2023-10-21T06:30:32.844Z,936.79
2023-10-21T06:31:32.762Z,936.82
2023-10-21T06:32:32.777Z,936.80
2023-10-21T06:33:32.796Z,936.84
2023-10-21T06:34:32.726Z,936.88
2023-10-21T06:35:32.704Z,936.90
2023-10-21T06:36:32.717Z,936.98
2023-10-21T06:37:32.682Z,936.98
2023-10-21T06:38:32.684Z,936.98
2023-10-21T06:39:32.790Z,936.98
2023-10-21T06:40:44.873Z,936.98
2023-10-21T06:41:32.648Z,937.01
2023-10-21T06:42:32.685Z,937.02
2023-10-21T06:43:32.613Z,937.05
2023-10-21T06:44:32.622Z,937.07
2023-10-21T06:45:32.591Z,937.13
2023-10-21T06:46:32.617Z,937.11
2023-10-21T06:47:32.545Z,937.14
2023-10-21T06:48:32.572Z,937.15
2023-10-21T06:49:32.550Z,937.15
2023-10-21T06:50:32.503Z,937.19
2023-10-21T06:51:32.556Z,937.21
2023-10-21T06:52:32.466Z,937.25
2023-10-21T06:53:32.472Z,937.26
2023-10-21T06:54:32.562Z,937.24
2023-10-21T06:55:32.436Z,937.25
2023-10-21T06:56:32.446Z,937.26
2023-10-21T06:57:32.475Z,937.21
2023-10-21T06:58:32.453Z,937.22
2023-10-21T06:59:32.386Z,937.24
2023-10-21T07:00:32.386Z,937.24
2023-10-21T07:01:32.405Z,937.22
2023-10-21T07:02:32.383Z,937.24
2023-10-21T07:03:32.346Z,937.24
2023-10-21T07:04:32.329Z,937.29
2023-10-21T07:05:32.423Z,937.35
2023-10-21T07:06:32.341Z,937.36
2023-10-21T07:07:32.278Z,937.39
2023-10-21T07:08:32.267Z,937.40
2023-10-21T07:09:32.291Z,937.38
2023-10-21T07:10:32.350Z,937.39
2023-10-21T07:11:32.236Z,937.39
2023-10-21T07:12:32.294Z,937.35
2023-10-21T07:13:32.216Z,937.38
2023-10-21T07:14:32.185Z,937.43
2023-10-21T07:15:32.159Z,937.42
2023-10-21T07:16:32.216Z,937.42
2023-10-21T07:17:32.227Z,937.41
2023-10-21T07:18:32.281Z,937.41
2023-10-21T07:19:32.100Z,937.46
2023-10-21T07:20:32.104Z,937.45
2023-10-21T07:21:32.195Z,937.45
2023-10-21T07:22:32.090Z,937.49
2023-10-21T07:23:32.061Z,937.53
2023-10-21T07:24:32.130Z,937.48
2023-10-21T07:25:32.051Z,937.48
2023-10-21T07:26:32.027Z,937.47
2023-10-21T07:27:32.072Z,937.45
2023-10-21T07:28:32.152Z,937.48
2023-10-21T07:29:31.968Z,937.47
2023-10-21T07:30:32.016Z,937.43
2023-10-21T07:31:31.955Z,937.45
2023-10-21T07:32:31.971Z,937.49
2023-10-21T07:33:32.021Z,937.52
2023-10-21T07:34:31.912Z,937.52
2023-10-21T07:35:31.903Z,937.54
2023-10-21T07:36:31.965Z,937.59
2023-10-21T07:37:31.874Z,937.59
2023-10-21T07:38:31.857Z,937.61
2023-10-21T07:39:31.958Z,937.64
2023-10-21T07:40:31.844Z,937.60
2023-10-21T07:41:31.822Z,937.66
2023-10-21T07:42:31.873Z,937.65
2023-10-21T07:43:31.811Z,937.62
2023-10-21T07:44:31.842Z,937.60
2023-10-21T07:45:31.814Z,937.61
2023-10-21T07:46:31.785Z,937.59
2023-10-21T07:47:31.778Z,937.61
2023-10-21T07:48:31.857Z,937.59
2023-10-21T07:49:31.713Z,937.64
2023-10-21T07:50:31.707Z,937.73
2023-10-21T07:51:31.716Z,937.71
2023-10-21T07:52:31.715Z,937.77
2023-10-21T07:53:31.690Z,937.70
2023-10-21T07:54:31.708Z,937.66
2023-10-21T07:55:31.640Z,937.64
2023-10-21T07:56:31.623Z,937.64
2023-10-21T07:57:31.680Z,937.62
2023-10-21T07:58:31.599Z,937.60
2023-10-21T07:59:31.618Z,937.62
2023-10-21T08:00:31.593Z,937.64
2023-10-21T08:01:31.590Z,937.62
2023-10-21T08:02:31.587Z,937.63
2023-10-21T08:03:31.563Z,937.65
2023-10-21T08:04:31.551Z,937.69
2023-10-21T08:05:31.513Z,937.69
2023-10-21T08:06:31.534Z,937.69
2023-10-21T08:07:31.460Z,937.74
2023-10-21T08:08:31.482Z,937.79
2023-10-21T08:09:31.539Z,937.74
2023-10-21T08:10:31.454Z,937.76
2023-10-21T08:11:31.408Z,937.79
2023-10-21T08:12:31.470Z,937.81
2023-10-21T08:13:31.443Z,937.84
2023-10-21T08:14:31.380Z,937.87
2023-10-21T08:15:31.369Z,937.86
2023-10-21T08:16:31.413Z,937.89
2023-10-21T08:17:31.416Z,937.93
2023-10-21T08:18:31.323Z,937.87
2023-10-21T08:19:31.333Z,937.87
2023-10-21T08:20:31.288Z,937.95
2023-10-21T08:21:31.310Z,937.94
2023-10-21T08:22:31.289Z,937.90
2023-10-21T08:23:31.262Z,937.93
2023-10-21T08:24:31.251Z,937.93
2023-10-21T08:25:31.209Z,937.98
2023-10-21T08:26:31.214Z,937.99
2023-10-21T08:27:32.700Z,938.00
2023-10-21T08:28:31.214Z,937.98
2023-10-21T08:29:31.162Z,937.98
2023-10-21T08:30:31.249Z,938.00
2023-10-21T08:31:31.207Z,938.00
2023-10-21T08:32:31.171Z,938.04
2023-10-21T08:33:31.129Z,938.06
2023-10-21T08:34:31.214Z,938.05
2023-10-21T08:35:31.097Z,938.08
2023-10-21T08:36:31.150Z,938.10
2023-10-21T08:37:31.059Z,938.13
2023-10-21T08:38:31.046Z,938.18
2023-10-21T08:39:31.113Z,938.16
2023-10-21T08:40:31.048Z,938.17
2023-10-21T08:41:31.010Z,938.14
2023-10-21T08:42:47.983Z,938.13
2023-10-21T08:43:30.972Z,938.10
2023-10-21T08:44:30.950Z,938.12
2023-10-21T08:45:31.028Z,938.15
2023-10-21T08:46:30.956Z,938.14
2023-10-21T08:47:30.937Z,938.16
2023-10-21T08:48:30.923Z,938.16
2023-10-21T08:49:30.880Z,938.14
2023-10-21T08:50:30.893Z,938.16
2023-10-21T08:51:30.931Z,938.17
2023-10-21T08:52:31.924Z,938.15
2023-10-21T08:53:30.837Z,938.15
2023-10-21T08:54:30.860Z,938.16
2023-10-21T08:55:30.792Z,938.19
2023-10-21T08:56:30.830Z,938.14
2023-10-21T08:57:30.843Z,938.13
2023-10-21T08:58:30.756Z,938.17
2023-10-21T08:59:30.746Z,938.19
2023-10-21T09:00:30.768Z,938.16
2023-10-21T09:01:30.769Z,938.12
2023-10-21T09:02:30.747Z,938.12
2023-10-21T09:03:30.715Z,938.09
2023-10-21T09:04:30.747Z,938.12
2023-10-21T09:05:30.670Z,938.13
2023-10-21T09:06:30.702Z,938.09
2023-10-21T09:07:30.643Z,938.12
2023-10-21T09:08:30.695Z,938.11
2023-10-21T09:09:30.773Z,938.17
2023-10-21T09:10:30.654Z,938.22
2023-10-21T09:11:30.594Z,938.19
2023-10-21T09:12:30.659Z,938.21
2023-10-21T09:13:30.622Z,938.27
2023-10-21T09:14:30.564Z,938.24
2023-10-21T09:15:30.665Z,938.27
2023-10-21T09:16:30.704Z,938.22
2023-10-21T09:17:30.531Z,938.17
2023-10-21T09:18:30.531Z,938.24
2023-10-21T09:19:30.559Z,938.23
2023-10-21T09:20:30.483Z,938.22
2023-10-21T09:21:30.463Z,938.23
2023-10-21T09:22:30.447Z,938.21
2023-10-21T09:23:30.428Z,938.19
2023-10-21T09:24:30.443Z,938.19
2023-10-21T09:25:30.409Z,938.23
2023-10-21T09:26:30.388Z,938.23
2023-10-21T09:27:30.415Z,938.18
2023-10-21T09:28:30.340Z,938.19
2023-10-21T09:29:30.341Z,938.20
2023-10-21T09:30:30.395Z,938.17
2023-10-21T09:31:30.355Z,938.10
2023-10-21T09:32:30.333Z,938.11
2023-10-21T09:33:30.300Z,938.11
2023-10-21T09:34:30.292Z,938.11
2023-10-21T09:35:30.270Z,938.14
2023-10-21T09:36:30.316Z,938.11
2023-10-21T09:37:30.265Z,938.14
2023-10-21T09:38:30.228Z,938.10
2023-10-21T09:39:30.303Z,938.09
2023-10-21T09:40:30.194Z,938.09
2023-10-21T09:41:30.218Z,938.09
2023-10-21T09:42:30.261Z,938.08
2023-10-21T09:43:30.153Z,938.05
2023-10-21T09:44:30.174Z,938.08
2023-10-21T09:45:30.145Z,938.01
2023-10-21T09:46:30.172Z,938.00
2023-10-21T09:47:30.123Z,937.96
2023-10-21T09:48:30.202Z,937.94
2023-10-21T09:49:30.084Z,937.93
2023-10-21T09:50:30.060Z,937.96
2023-10-21T09:51:30.071Z,937.93
2023-10-21T09:52:30.044Z,937.94
2023-10-21T09:53:30.024Z,937.96
2023-10-21T09:54:30.143Z,937.93
2023-10-21T09:55:29.991Z,937.94
2023-10-21T09:56:29.983Z,937.97
2023-10-21T09:57:30.036Z,937.91
2023-10-21T09:58:29.971Z,937.90
2023-10-21T09:59:29.955Z,937.94
2023-10-21T10:00:30.004Z,937.92
2023-10-21T10:01:30.013Z,937.89
2023-10-21T10:02:29.933Z,937.92
2023-10-21T10:03:29.979Z,937.88
2023-10-21T10:04:29.909Z,937.92
2023-10-21T10:05:32.256Z,937.89
2023-10-21T10:06:35.216Z,937.85
2023-10-21T10:07:40.674Z,937.81
2023-10-21T10:08:29.869Z,937.85
2023-10-21T10:09:29.865Z,937.87
2023-10-21T10:10:29.823Z,937.85
2023-10-21T10:11:29.782Z,937.81
2023-10-21T10:12:29.808Z,937.83
2023-10-21T10:13:29.746Z,937.80
2023-10-21T10:14:29.752Z,937.81
2023-10-21T10:15:29.810Z,937.83
2023-10-21T10:16:29.772Z,937.92
2023-10-21T10:17:29.812Z,937.93
2023-10-21T10:18:29.687Z,937.95
2023-10-21T10:19:29.682Z,937.92
2023-10-21T10:20:29.668Z,937.96
2023-10-21T10:21:29.671Z,937.97
2023-10-21T10:22:29.645Z,937.96
2023-10-21T10:23:29.651Z,937.94
2023-10-21T10:24:29.682Z,937.92
2023-10-21T10:25:29.686Z,937.95
2023-10-21T10:26:29.586Z,937.97
2023-10-21T10:27:29.576Z,937.99
2023-10-21T10:28:29.578Z,937.99
2023-10-21T10:29:30.103Z,937.98
2023-10-21T10:30:29.568Z,937.99
2023-10-21T10:31:29.532Z,938.01
2023-10-21T10:32:29.518Z,938.01
2023-10-21T10:33:29.790Z,937.95
2023-10-21T10:34:29.469Z,937.97
2023-10-21T10:35:29.468Z,937.98
2023-10-21T10:36:29.502Z,937.97
2023-10-21T10:37:29.440Z,937.99
2023-10-21T10:38:29.446Z,937.98
2023-10-21T10:39:29.485Z,937.97
2023-10-21T10:40:29.393Z,937.98
2023-10-21T10:41:29.401Z,937.96
2023-10-21T10:42:29.435Z,938.01
2023-10-21T10:43:29.364Z,938.02
2023-10-21T10:44:29.385Z,937.97
2023-10-21T10:45:29.385Z,938.00
2023-10-21T10:46:29.366Z,937.97
2023-10-21T10:47:29.417Z,937.91
2023-10-21T10:48:29.317Z,937.87
2023-10-21T10:49:29.318Z,937.80
2023-10-21T10:50:29.252Z,937.85
2023-10-21T10:51:29.435Z,937.84
2023-10-21T10:52:29.228Z,937.88
2023-10-21T10:53:29.244Z,937.90
2023-10-21T10:54:29.267Z,937.89
2023-10-21T10:55:29.229Z,937.89
2023-10-21T10:56:29.178Z,937.92
2023-10-21T10:57:29.226Z,937.92
2023-10-21T10:58:29.152Z,937.92
2023-10-21T10:59:29.143Z,937.92
2023-10-21T11:00:29.207Z,937.95
2023-10-21T11:01:29.206Z,937.96
2023-10-21T11:02:29.169Z,937.94
2023-10-21T11:03:29.341Z,937.93
2023-10-21T11:04:29.143Z,937.94
2023-10-21T11:05:29.093Z,937.92
2023-10-21T11:06:29.161Z,937.88
2023-10-21T11:07:29.074Z,937.89
2023-10-21T11:08:29.065Z,937.82
2023-10-21T11:09:29.048Z,937.87
2023-10-21T11:10:29.015Z,937.85
2023-10-21T11:11:29.071Z,937.84
2023-10-21T11:12:29.009Z,937.86
2023-10-21T11:13:28.977Z,937.85
2023-10-21T11:14:28.942Z,937.85
2023-10-21T11:15:28.975Z,937.86
2023-10-21T11:16:28.960Z,937.85
2023-10-21T11:17:28.929Z,937.87
2023-10-21T11:18:28.949Z,937.86
2023-10-21T11:19:28.888Z,937.80
2023-10-21T11:20:28.872Z,937.85
2023-10-21T11:21:28.894Z,937.78
2023-10-21T11:22:28.853Z,937.84
2023-10-21T11:23:28.822Z,937.83
2023-10-21T11:24:28.921Z,937.84
2023-10-21T11:25:28.806Z,937.82
2023-10-21T11:26:28.782Z,937.86
2023-10-21T11:27:28.858Z,937.84
2023-10-21T11:28:28.766Z,937.87
2023-10-21T11:29:28.749Z,937.86
2023-10-21T11:30:28.861Z,937.81
2023-10-21T11:31:28.768Z,937.79
2023-10-21T11:32:29.004Z,937.82
2023-10-21T11:33:28.751Z,937.83
2023-10-21T11:34:28.735Z,937.80
2023-10-21T11:35:28.765Z,937.83
2023-10-21T11:36:28.735Z,937.80
2023-10-21T11:37:28.640Z,937.80
2023-10-21T11:38:28.637Z,937.84
2023-10-21T11:39:28.673Z,937.84
2023-10-21T11:40:28.613Z,937.82
2023-10-21T11:41:28.620Z,937.87
2023-10-21T11:42:28.675Z,937.78
2023-10-21T11:43:28.560Z,937.81
2023-10-21T11:44:28.590Z,937.79
2023-10-21T11:45:28.594Z,937.78
2023-10-21T11:46:28.533Z,937.82
2023-10-21T11:47:28.564Z,937.83
2023-10-21T11:48:28.578Z,937.80
2023-10-21T11:49:28.479Z,937.76
2023-10-21T11:50:28.518Z,937.79
2023-10-21T11:51:28.530Z,937.77
2023-10-21T11:52:28.478Z,937.78
2023-10-21T11:53:28.471Z,937.72
2023-10-21T11:54:28.527Z,937.71
2023-10-21T11:55:28.428Z,937.70
2023-10-21T11:56:28.394Z,937.68
2023-10-21T11:57:28.415Z,937.69
2023-10-21T11:58:28.401Z,937.69
2023-10-21T11:59:28.362Z,937.67
2023-10-21T12:00:28.427Z,937.55
2023-10-21T12:01:28.440Z,937.59
2023-10-21T12:02:28.345Z,937.62
2023-10-21T12:03:28.508Z,937.62
2023-10-21T12:04:28.329Z,937.68
2023-10-21T12:05:28.305Z,937.66
2023-10-21T12:06:28.269Z,937.67
2023-10-21T12:07:28.294Z,937.66
2023-10-21T12:08:28.274Z,937.70
2023-10-21T12:09:28.271Z,937.74
2023-10-21T12:10:28.205Z,937.75
2023-10-21T12:11:28.216Z,937.80
2023-10-21T12:12:28.253Z,937.87
2023-10-21T12:13:28.169Z,937.85
2023-10-21T12:14:28.186Z,937.82
2023-10-21T12:15:28.304Z,937.85
2023-10-21T12:16:28.160Z,937.80
2023-10-21T12:17:28.177Z,937.77
2023-10-21T12:18:28.194Z,937.70
2023-10-21T12:19:28.213Z,937.72
2023-10-21T12:20:28.100Z,937.67
2023-10-21T12:21:28.079Z,937.64
2023-10-21T12:22:28.044Z,937.66
2023-10-21T12:23:28.048Z,937.60
2023-10-21T12:24:28.047Z,937.62
2023-10-21T12:25:28.052Z,937.62
2023-10-21T12:26:28.010Z,937.61
2023-10-21T12:27:28.030Z,937.60
2023-10-21T12:28:27.978Z,937.60